sensor_id;sensor_type;location;lat;lon;timestamp;P1;durP1;ratioP1;P2;durP2;ratioP2
21360;SDS011;10839;43.206;23.550;2022-12-11T00:00:17;6.47;;;3.30;;
21360;SDS011;10839;43.206;23.550;2022-12-11T00:02:43;5.03;;;2.75;;
21360;SDS011;10839;43.206;23.550;2022-12-11T00:05:09;6.28;;;3.10;;
21360;SDS011;10839;43.206;23.550;2022-12-11T00:07:36;8.60;;;3.95;;
21360;SDS011;10839;43.206;23.550;2022-12-11T00:10:02;12.20;;;5.28;;
21360;SDS011;10839;43.206;23.550;2022-12-11T00:12:29;8.18;;;4.68;;
21360;SDS011;10839;43.206;23.550;2022-12-11T00:14:55;6.35;;;3.42;;
21360;SDS011;10839;43.206;23.550;2022-12-11T00:17:21;9.75;;;3.35;;
21360;SDS011;10839;43.206;23.550;2022-12-11T00:19:48;4.65;;;2.75;;
21360;SDS011;10839;43.206;23.550;2022-12-11T00:22:13;10.07;;;3.00;;
21360;SDS011;10839;43.206;23.550;2022-12-11T00:24:40;8.57;;;3.40;;
21360;SDS011;10839;43.206;23.550;2022-12-11T00:27:06;6.25;;;2.88;;
21360;SDS011;10839;43.206;23.550;2022-12-11T00:29:32;5.95;;;3.00;;
21360;SDS011;10839;43.206;23.550;2022-12-11T00:31:58;5.03;;;2.47;;
21360;SDS011;10839;43.206;23.550;2022-12-11T00:34:24;7.43;;;2.35;;
21360;SDS011;10839;43.206;23.550;2022-12-11T00:36:50;6.22;;;2.80;;
21360;SDS011;10839;43.206;23.550;2022-12-11T00:39:16;6.20;;;2.60;;
21360;SDS011;10839;43.206;23.550;2022-12-11T00:41:42;6.07;;;3.13;;
21360;SDS011;10839;43.206;23.550;2022-12-11T00:44:08;6.78;;;3.70;;
21360;SDS011;10839;43.206;23.550;2022-12-11T00:46:35;7.70;;;3.15;;
21360;SDS011;10839;43.206;23.550;2022-12-11T00:49:00;8.50;;;3.38;;
21360;SDS011;10839;43.206;23.550;2022-12-11T00:51:26;8.45;;;4.68;;
21360;SDS011;10839;43.206;23.550;2022-12-11T00:53:52;5.45;;;2.70;;
21360;SDS011;10839;43.206;23.550;2022-12-11T00:56:20;6.20;;;2.75;;
21360;SDS011;10839;43.206;23.550;2022-12-11T00:58:47;4.35;;;2.38;;
21360;SDS011;10839;43.206;23.550;2022-12-11T01:01:17;7.57;;;2.85;;
21360;SDS011;10839;43.206;23.550;2022-12-11T01:03:46;5.03;;;2.22;;
21360;SDS011;10839;43.206;23.550;2022-12-11T01:06:31;4.85;;;2.13;;
21360;SDS011;10839;43.206;23.550;2022-12-11T01:08:56;9.48;;;1.95;;
21360;SDS011;10839;43.206;23.550;2022-12-11T01:14:07;7.03;;;2.55;;
21360;SDS011;10839;43.206;23.550;2022-12-11T01:16:35;6.63;;;3.33;;
21360;SDS011;10839;43.206;23.550;2022-12-11T01:19:01;4.43;;;2.22;;
21360;SDS011;10839;43.206;23.550;2022-12-11T01:21:27;7.55;;;3.20;;
21360;SDS011;10839;43.206;23.550;2022-12-11T01:23:54;6.25;;;3.67;;
21360;SDS011;10839;43.206;23.550;2022-12-11T01:26:20;8.77;;;3.45;;
21360;SDS011;10839;43.206;23.550;2022-12-11T01:28:50;7.25;;;3.10;;
21360;SDS011;10839;43.206;23.550;2022-12-11T01:31:17;6.43;;;2.97;;
21360;SDS011;10839;43.206;23.550;2022-12-11T01:33:46;6.28;;;2.85;;
21360;SDS011;10839;43.206;23.550;2022-12-11T01:36:14;4.72;;;2.00;;
21360;SDS011;10839;43.206;23.550;2022-12-11T01:38:45;4.35;;;2.90;;
21360;SDS011;10839;43.206;23.550;2022-12-11T01:41:11;3.90;;;1.75;;
21360;SDS011;10839;43.206;23.550;2022-12-11T01:43:57;5.65;;;2.30;;
21360;SDS011;10839;43.206;23.550;2022-12-11T01:46:30;3.90;;;2.35;;
21360;SDS011;10839;43.206;23.550;2022-12-11T01:48:58;9.27;;;3.58;;
21360;SDS011;10839;43.206;23.550;2022-12-11T01:51:27;4.82;;;2.70;;
21360;SDS011;10839;43.206;23.550;2022-12-11T01:53:58;8.65;;;3.60;;
21360;SDS011;10839;43.206;23.550;2022-12-11T01:56:29;6.05;;;3.65;;
21360;SDS011;10839;43.206;23.550;2022-12-11T01:58:58;6.78;;;3.05;;
21360;SDS011;10839;43.206;23.550;2022-12-11T02:01:45;4.55;;;2.50;;
21360;SDS011;10839;43.206;23.550;2022-12-11T02:04:16;4.82;;;2.58;;
21360;SDS011;10839;43.206;23.550;2022-12-11T02:06:45;8.05;;;3.55;;
21360;SDS011;10839;43.206;23.550;2022-12-11T02:09:14;4.32;;;1.58;;
21360;SDS011;10839;43.206;23.550;2022-12-11T02:14:46;7.25;;;3.13;;
21360;SDS011;10839;43.206;23.550;2022-12-11T02:20:25;6.68;;;1.80;;
21360;SDS011;10839;43.206;23.550;2022-12-11T02:23:05;4.43;;;1.48;;
21360;SDS011;10839;43.206;23.550;2022-12-11T02:31:28;2.45;;;0.82;;
21360;SDS011;10839;43.206;23.550;2022-12-11T02:36:32;3.97;;;1.10;;
21360;SDS011;10839;43.206;23.550;2022-12-11T02:39:04;2.83;;;1.30;;
21360;SDS011;10839;43.206;23.550;2022-12-11T02:41:33;7.50;;;2.08;;
21360;SDS011;10839;43.206;23.550;2022-12-11T02:44:00;3.85;;;1.70;;
21360;SDS011;10839;43.206;23.550;2022-12-11T02:46:28;4.70;;;1.92;;
21360;SDS011;10839;43.206;23.550;2022-12-11T02:48:57;6.95;;;3.33;;
21360;SDS011;10839;43.206;23.550;2022-12-11T02:51:25;1.90;;;0.43;;
21360;SDS011;10839;43.206;23.550;2022-12-11T02:53:55;1.05;;;0.40;;
21360;SDS011;10839;43.206;23.550;2022-12-11T02:56:28;1.30;;;0.47;;
21360;SDS011;10839;43.206;23.550;2022-12-11T02:59:07;3.22;;;0.95;;
21360;SDS011;10839;43.206;23.550;2022-12-11T03:01:40;0.93;;;0.60;;
21360;SDS011;10839;43.206;23.550;2022-12-11T03:04:08;1.60;;;0.63;;
21360;SDS011;10839;43.206;23.550;2022-12-11T03:06:35;0.75;;;0.40;;
21360;SDS011;10839;43.206;23.550;2022-12-11T03:09:06;0.60;;;0.32;;
21360;SDS011;10839;43.206;23.550;2022-12-11T03:11:33;1.65;;;0.70;;
21360;SDS011;10839;43.206;23.550;2022-12-11T03:13:59;0.85;;;0.30;;
21360;SDS011;10839;43.206;23.550;2022-12-11T03:19:09;1.23;;;0.35;;
21360;SDS011;10839;43.206;23.550;2022-12-11T03:21:55;1.20;;;0.40;;
21360;SDS011;10839;43.206;23.550;2022-12-11T03:24:33;0.77;;;0.43;;
21360;SDS011;10839;43.206;23.550;2022-12-11T03:27:12;0.68;;;0.35;;
21360;SDS011;10839;43.206;23.550;2022-12-11T03:29:47;1.00;;;0.52;;
21360;SDS011;10839;43.206;23.550;2022-12-11T03:32:23;0.60;;;0.30;;
21360;SDS011;10839;43.206;23.550;2022-12-11T03:35:03;0.32;;;0.17;;
21360;SDS011;10839;43.206;23.550;2022-12-11T03:37:39;2.63;;;0.43;;
21360;SDS011;10839;43.206;23.550;2022-12-11T03:40:08;3.33;;;0.47;;
21360;SDS011;10839;43.206;23.550;2022-12-11T03:42:37;1.45;;;0.80;;
21360;SDS011;10839;43.206;23.550;2022-12-11T03:45:05;2.72;;;1.20;;
21360;SDS011;10839;43.206;23.550;2022-12-11T03:47:32;4.82;;;1.40;;
21360;SDS011;10839;43.206;23.550;2022-12-11T03:49:59;2.15;;;0.93;;
21360;SDS011;10839;43.206;23.550;2022-12-11T03:52:29;1.90;;;0.80;;
21360;SDS011;10839;43.206;23.550;2022-12-11T03:54:58;1.88;;;0.30;;
21360;SDS011;10839;43.206;23.550;2022-12-11T03:57:30;1.05;;;0.43;;
21360;SDS011;10839;43.206;23.550;2022-12-11T03:59:59;1.63;;;0.43;;
21360;SDS011;10839;43.206;23.550;2022-12-11T04:02:37;0.63;;;0.20;;
21360;SDS011;10839;43.206;23.550;2022-12-11T04:05:04;1.35;;;0.30;;
21360;SDS011;10839;43.206;23.550;2022-12-11T04:07:30;0.80;;;0.47;;
21360;SDS011;10839;43.206;23.550;2022-12-11T04:09:56;0.75;;;0.20;;
21360;SDS011;10839;43.206;23.550;2022-12-11T04:12:22;0.50;;;0.30;;
21360;SDS011;10839;43.206;23.550;2022-12-11T04:14:48;4.22;;;0.50;;
21360;SDS011;10839;43.206;23.550;2022-12-11T04:17:27;0.70;;;0.70;;
21360;SDS011;10839;43.206;23.550;2022-12-11T04:20:20;0.70;;;0.40;;
21360;SDS011;10839;43.206;23.550;2022-12-11T04:23:05;2.60;;;0.75;;
21360;SDS011;10839;43.206;23.550;2022-12-11T04:28:42;2.33;;;1.50;;
21360;SDS011;10839;43.206;23.550;2022-12-11T04:31:14;3.80;;;2.40;;
21360;SDS011;10839;43.206;23.550;2022-12-11T04:33:44;1.17;;;0.85;;
21360;SDS011;10839;43.206;23.550;2022-12-11T04:36:11;0.60;;;0.40;;
21360;SDS011;10839;43.206;23.550;2022-12-11T04:38:38;0.40;;;0.30;;
21360;SDS011;10839;43.206;23.550;2022-12-11T04:41:08;0.40;;;0.30;;
21360;SDS011;10839;43.206;23.550;2022-12-11T04:43:36;1.90;;;0.60;;
21360;SDS011;10839;43.206;23.550;2022-12-11T04:48:39;1.02;;;0.47;;
21360;SDS011;10839;43.206;23.550;2022-12-11T04:51:06;2.55;;;0.57;;
21360;SDS011;10839;43.206;23.550;2022-12-11T04:53:33;0.60;;;0.30;;
21360;SDS011;10839;43.206;23.550;2022-12-11T04:56:00;3.45;;;1.60;;
21360;SDS011;10839;43.206;23.550;2022-12-11T04:58:26;4.13;;;2.72;;
21360;SDS011;10839;43.206;23.550;2022-12-11T05:00:52;3.40;;;1.65;;
21360;SDS011;10839;43.206;23.550;2022-12-11T05:03:18;3.58;;;2.47;;
21360;SDS011;10839;43.206;23.550;2022-12-11T05:05:51;6.85;;;3.70;;
21360;SDS011;10839;43.206;23.550;2022-12-11T05:08:19;1.10;;;0.80;;
21360;SDS011;10839;43.206;23.550;2022-12-11T05:10:59;3.30;;;1.80;;
21360;SDS011;10839;43.206;23.550;2022-12-11T05:13:27;2.65;;;1.00;;
21360;SDS011;10839;43.206;23.550;2022-12-11T05:15:55;3.42;;;1.02;;
21360;SDS011;10839;43.206;23.550;2022-12-11T05:18:21;2.97;;;1.73;;
21360;SDS011;10839;43.206;23.550;2022-12-11T05:20:57;3.67;;;0.93;;
21360;SDS011;10839;43.206;23.550;2022-12-11T05:23:24;0.63;;;0.20;;
21360;SDS011;10839;43.206;23.550;2022-12-11T05:25:52;0.70;;;0.30;;
21360;SDS011;10839;43.206;23.550;2022-12-11T05:28:20;0.30;;;0.20;;
21360;SDS011;10839;43.206;23.550;2022-12-11T05:30:47;0.20;;;0.15;;
21360;SDS011;10839;43.206;23.550;2022-12-11T05:33:14;0.15;;;0.10;;
21360;SDS011;10839;43.206;23.550;2022-12-11T05:35:45;4.63;;;2.55;;
21360;SDS011;10839;43.206;23.550;2022-12-11T05:38:13;0.45;;;0.28;;
21360;SDS011;10839;43.206;23.550;2022-12-11T05:40:40;0.20;;;0.20;;
21360;SDS011;10839;43.206;23.550;2022-12-11T05:43:06;0.47;;;0.38;;
21360;SDS011;10839;43.206;23.550;2022-12-11T05:45:33;1.25;;;0.52;;
21360;SDS011;10839;43.206;23.550;2022-12-11T05:47:59;4.68;;;0.40;;
21360;SDS011;10839;43.206;23.550;2022-12-11T05:50:25;0.45;;;0.20;;
21360;SDS011;10839;43.206;23.550;2022-12-11T05:52:51;0.73;;;0.30;;
21360;SDS011;10839;43.206;23.550;2022-12-11T05:55:17;0.75;;;0.20;;
21360;SDS011;10839;43.206;23.550;2022-12-11T05:57:42;1.63;;;0.30;;
21360;SDS011;10839;43.206;23.550;2022-12-11T06:00:10;0.50;;;0.30;;
21360;SDS011;10839;43.206;23.550;2022-12-11T06:02:36;0.20;;;0.20;;
21360;SDS011;10839;43.206;23.550;2022-12-11T06:05:02;2.50;;;0.50;;
21360;SDS011;10839;43.206;23.550;2022-12-11T06:07:28;1.55;;;0.47;;
21360;SDS011;10839;43.206;23.550;2022-12-11T06:09:54;4.05;;;2.30;;
21360;SDS011;10839;43.206;23.550;2022-12-11T06:12:20;2.67;;;1.42;;
21360;SDS011;10839;43.206;23.550;2022-12-11T06:14:46;0.95;;;0.50;;
21360;SDS011;10839;43.206;23.550;2022-12-11T06:17:12;10.20;;;5.43;;
21360;SDS011;10839;43.206;23.550;2022-12-11T06:19:38;5.35;;;2.00;;
21360;SDS011;10839;43.206;23.550;2022-12-11T06:22:04;10.68;;;4.20;;
21360;SDS011;10839;43.206;23.550;2022-12-11T06:24:30;4.65;;;1.02;;
21360;SDS011;10839;43.206;23.550;2022-12-11T06:26:56;1.70;;;0.60;;
21360;SDS011;10839;43.206;23.550;2022-12-11T06:29:22;1.67;;;0.50;;
21360;SDS011;10839;43.206;23.550;2022-12-11T06:31:48;3.90;;;1.85;;
21360;SDS011;10839;43.206;23.550;2022-12-11T06:34:14;1.23;;;0.40;;
21360;SDS011;10839;43.206;23.550;2022-12-11T06:36:40;1.20;;;0.70;;
21360;SDS011;10839;43.206;23.550;2022-12-11T06:39:06;1.60;;;0.70;;
21360;SDS011;10839;43.206;23.550;2022-12-11T06:41:32;5.55;;;3.03;;
21360;SDS011;10839;43.206;23.550;2022-12-11T06:43:58;2.13;;;1.05;;
21360;SDS011;10839;43.206;23.550;2022-12-11T06:46:24;4.30;;;1.33;;
21360;SDS011;10839;43.206;23.550;2022-12-11T06:48:50;7.07;;;3.20;;
21360;SDS011;10839;43.206;23.550;2022-12-11T06:51:17;11.27;;;5.88;;
21360;SDS011;10839;43.206;23.550;2022-12-11T06:53:49;13.65;;;8.68;;
21360;SDS011;10839;43.206;23.550;2022-12-11T06:56:17;17.85;;;10.07;;
21360;SDS011;10839;43.206;23.550;2022-12-11T06:58:43;10.40;;;7.03;;
21360;SDS011;10839;43.206;23.550;2022-12-11T07:01:16;12.10;;;6.72;;
21360;SDS011;10839;43.206;23.550;2022-12-11T07:03:44;12.02;;;7.32;;
21360;SDS011;10839;43.206;23.550;2022-12-11T07:06:10;12.15;;;7.05;;
21360;SDS011;10839;43.206;23.550;2022-12-11T07:08:36;12.07;;;7.75;;
21360;SDS011;10839;43.206;23.550;2022-12-11T07:11:06;12.90;;;7.47;;
21360;SDS011;10839;43.206;23.550;2022-12-11T07:13:34;18.10;;;10.38;;
21360;SDS011;10839;43.206;23.550;2022-12-11T07:16:01;16.10;;;9.02;;
21360;SDS011;10839;43.206;23.550;2022-12-11T07:18:35;12.90;;;8.27;;
21360;SDS011;10839;43.206;23.550;2022-12-11T07:21:06;12.55;;;8.55;;
21360;SDS011;10839;43.206;23.550;2022-12-11T07:23:33;11.32;;;7.55;;
21360;SDS011;10839;43.206;23.550;2022-12-11T07:26:03;12.60;;;7.80;;
21360;SDS011;10839;43.206;23.550;2022-12-11T07:28:31;19.00;;;9.15;;
21360;SDS011;10839;43.206;23.550;2022-12-11T07:30:57;13.50;;;8.80;;
21360;SDS011;10839;43.206;23.550;2022-12-11T07:33:24;15.35;;;8.55;;
21360;SDS011;10839;43.206;23.550;2022-12-11T07:35:50;15.13;;;8.73;;
21360;SDS011;10839;43.206;23.550;2022-12-11T07:38:16;11.00;;;7.43;;
21360;SDS011;10839;43.206;23.550;2022-12-11T07:40:43;11.38;;;7.93;;
21360;SDS011;10839;43.206;23.550;2022-12-11T07:43:09;24.48;;;14.40;;
21360;SDS011;10839;43.206;23.550;2022-12-11T07:45:35;33.60;;;19.33;;
21360;SDS011;10839;43.206;23.550;2022-12-11T07:48:01;21.73;;;13.10;;
21360;SDS011;10839;43.206;23.550;2022-12-11T07:50:27;12.27;;;8.13;;
21360;SDS011;10839;43.206;23.550;2022-12-11T07:52:53;13.00;;;8.88;;
21360;SDS011;10839;43.206;23.550;2022-12-11T07:55:19;14.18;;;9.10;;
21360;SDS011;10839;43.206;23.550;2022-12-11T07:57:45;16.40;;;9.65;;
21360;SDS011;10839;43.206;23.550;2022-12-11T08:00:11;16.30;;;9.85;;
21360;SDS011;10839;43.206;23.550;2022-12-11T08:02:40;14.95;;;9.57;;
21360;SDS011;10839;43.206;23.550;2022-12-11T08:05:06;15.30;;;10.63;;
21360;SDS011;10839;43.206;23.550;2022-12-11T08:07:33;16.92;;;10.65;;
21360;SDS011;10839;43.206;23.550;2022-12-11T08:10:00;16.02;;;10.10;;
21360;SDS011;10839;43.206;23.550;2022-12-11T08:12:27;20.42;;;13.05;;
21360;SDS011;10839;43.206;23.550;2022-12-11T08:14:53;22.20;;;13.38;;
21360;SDS011;10839;43.206;23.550;2022-12-11T08:17:19;21.90;;;13.63;;
21360;SDS011;10839;43.206;23.550;2022-12-11T08:19:44;28.08;;;16.58;;
21360;SDS011;10839;43.206;23.550;2022-12-11T08:22:10;29.23;;;17.77;;
21360;SDS011;10839;43.206;23.550;2022-12-11T08:24:38;76.53;;;41.10;;
21360;SDS011;10839;43.206;23.550;2022-12-11T08:27:04;29.58;;;16.88;;
21360;SDS011;10839;43.206;23.550;2022-12-11T08:29:31;18.80;;;12.30;;
21360;SDS011;10839;43.206;23.550;2022-12-11T08:31:57;20.83;;;12.43;;
21360;SDS011;10839;43.206;23.550;2022-12-11T08:34:24;18.95;;;12.23;;
21360;SDS011;10839;43.206;23.550;2022-12-11T08:36:49;20.30;;;12.02;;
21360;SDS011;10839;43.206;23.550;2022-12-11T08:39:15;19.92;;;11.63;;
21360;SDS011;10839;43.206;23.550;2022-12-11T08:41:41;20.50;;;12.98;;
21360;SDS011;10839;43.206;23.550;2022-12-11T08:44:10;25.95;;;13.80;;
21360;SDS011;10839;43.206;23.550;2022-12-11T08:46:37;22.92;;;12.30;;
21360;SDS011;10839;43.206;23.550;2022-12-11T08:49:03;19.90;;;11.75;;
21360;SDS011;10839;43.206;23.550;2022-12-11T08:51:30;15.25;;;9.98;;
21360;SDS011;10839;43.206;23.550;2022-12-11T08:53:57;17.70;;;10.77;;
21360;SDS011;10839;43.206;23.550;2022-12-11T08:56:25;17.23;;;10.85;;
21360;SDS011;10839;43.206;23.550;2022-12-11T08:58:51;19.00;;;10.27;;
21360;SDS011;10839;43.206;23.550;2022-12-11T09:01:23;15.27;;;10.15;;
21360;SDS011;10839;43.206;23.550;2022-12-11T09:03:51;16.83;;;9.75;;
21360;SDS011;10839;43.206;23.550;2022-12-11T09:06:18;16.15;;;10.25;;
21360;SDS011;10839;43.206;23.550;2022-12-11T09:08:47;15.07;;;9.50;;
21360;SDS011;10839;43.206;23.550;2022-12-11T09:11:16;23.50;;;12.27;;
21360;SDS011;10839;43.206;23.550;2022-12-11T09:13:45;17.35;;;10.40;;
21360;SDS011;10839;43.206;23.550;2022-12-11T09:16:12;18.40;;;10.90;;
21360;SDS011;10839;43.206;23.550;2022-12-11T09:18:41;15.05;;;9.38;;
21360;SDS011;10839;43.206;23.550;2022-12-11T09:21:11;16.80;;;10.15;;
21360;SDS011;10839;43.206;23.550;2022-12-11T09:23:38;17.98;;;10.25;;
21360;SDS011;10839;43.206;23.550;2022-12-11T09:26:06;18.95;;;10.80;;
21360;SDS011;10839;43.206;23.550;2022-12-11T09:28:35;14.18;;;9.25;;
21360;SDS011;10839;43.206;23.550;2022-12-11T09:31:08;17.02;;;12.50;;
21360;SDS011;10839;43.206;23.550;2022-12-11T09:33:35;15.30;;;9.37;;
21360;SDS011;10839;43.206;23.550;2022-12-11T09:36:02;14.80;;;9.40;;
21360;SDS011;10839;43.206;23.550;2022-12-11T09:38:30;19.13;;;10.60;;
21360;SDS011;10839;43.206;23.550;2022-12-11T09:40:57;15.40;;;10.15;;
21360;SDS011;10839;43.206;23.550;2022-12-11T09:44:26;16.98;;;9.60;;
21360;SDS011;10839;43.206;23.550;2022-12-11T09:46:24;17.10;;;9.52;;
21360;SDS011;10839;43.206;23.550;2022-12-11T09:48:52;18.33;;;11.52;;
21360;SDS011;10839;43.206;23.550;2022-12-11T09:54:10;15.75;;;9.95;;
21360;SDS011;10839;43.206;23.550;2022-12-11T09:56:41;16.85;;;9.80;;
21360;SDS011;10839;43.206;23.550;2022-12-11T10:05:51;14.73;;;10.23;;
21360;SDS011;10839;43.206;23.550;2022-12-11T10:08:22;11.50;;;7.93;;
21360;SDS011;10839;43.206;23.550;2022-12-11T10:16:48;10.50;;;7.53;;
21360;SDS011;10839;43.206;23.550;2022-12-11T10:19:18;11.90;;;7.68;;
21360;SDS011;10839;43.206;23.550;2022-12-11T10:21:49;15.30;;;9.35;;
21360;SDS011;10839;43.206;23.550;2022-12-11T10:27:19;14.18;;;8.77;;
21360;SDS011;10839;43.206;23.550;2022-12-11T10:29:48;10.75;;;7.30;;
21360;SDS011;10839;43.206;23.550;2022-12-11T10:32:24;11.05;;;7.25;;
21360;SDS011;10839;43.206;23.550;2022-12-11T10:35:00;14.52;;;8.15;;
21360;SDS011;10839;43.206;23.550;2022-12-11T10:37:30;12.32;;;8.05;;
21360;SDS011;10839;43.206;23.550;2022-12-11T10:39:56;13.15;;;8.18;;
21360;SDS011;10839;43.206;23.550;2022-12-11T10:42:22;13.90;;;7.63;;
21360;SDS011;10839;43.206;23.550;2022-12-11T10:45:14;11.73;;;6.93;;
21360;SDS011;10839;43.206;23.550;2022-12-11T10:47:40;8.98;;;6.13;;
21360;SDS011;10839;43.206;23.550;2022-12-11T10:50:06;9.73;;;6.43;;
21360;SDS011;10839;43.206;23.550;2022-12-11T10:52:41;8.75;;;5.90;;
21360;SDS011;10839;43.206;23.550;2022-12-11T10:58:00;9.98;;;6.55;;
21360;SDS011;10839;43.206;23.550;2022-12-11T11:00:36;13.07;;;6.38;;
21360;SDS011;10839;43.206;23.550;2022-12-11T11:03:05;14.88;;;8.25;;
21360;SDS011;10839;43.206;23.550;2022-12-11T11:05:46;12.40;;;7.45;;
21360;SDS011;10839;43.206;23.550;2022-12-11T11:08:16;12.90;;;7.35;;
21360;SDS011;10839;43.206;23.550;2022-12-11T11:10:55;11.45;;;7.63;;
21360;SDS011;10839;43.206;23.550;2022-12-11T11:13:26;58.25;;;29.95;;
21360;SDS011;10839;43.206;23.550;2022-12-11T11:16:01;40.28;;;20.48;;
21360;SDS011;10839;43.206;23.550;2022-12-11T11:18:32;20.50;;;13.23;;
21360;SDS011;10839;43.206;23.550;2022-12-11T11:20:59;19.52;;;11.32;;
21360;SDS011;10839;43.206;23.550;2022-12-11T11:23:26;12.95;;;8.63;;
21360;SDS011;10839;43.206;23.550;2022-12-11T11:25:54;14.93;;;8.20;;
21360;SDS011;10839;43.206;23.550;2022-12-11T11:28:24;11.43;;;6.90;;
21360;SDS011;10839;43.206;23.550;2022-12-11T11:30:55;23.80;;;12.73;;
21360;SDS011;10839;43.206;23.550;2022-12-11T11:33:30;14.50;;;5.65;;
21360;SDS011;10839;43.206;23.550;2022-12-11T11:39:28;16.52;;;7.28;;
21360;SDS011;10839;43.206;23.550;2022-12-11T11:41:50;21.35;;;9.05;;
21360;SDS011;10839;43.206;23.550;2022-12-11T11:47:29;8.38;;;4.57;;
21360;SDS011;10839;43.206;23.550;2022-12-11T11:50:21;9.18;;;5.20;;
21360;SDS011;10839;43.206;23.550;2022-12-11T11:55:31;6.85;;;4.85;;
21360;SDS011;10839;43.206;23.550;2022-12-11T11:58:23;7.10;;;4.93;;
21360;SDS011;10839;43.206;23.550;2022-12-11T12:00:58;6.50;;;4.43;;
21360;SDS011;10839;43.206;23.550;2022-12-11T12:03:24;6.65;;;4.22;;
21360;SDS011;10839;43.206;23.550;2022-12-11T12:14:35;8.90;;;5.50;;
21360;SDS011;10839;43.206;23.550;2022-12-11T12:17:20;11.52;;;6.07;;
21360;SDS011;10839;43.206;23.550;2022-12-11T12:25:23;6.18;;;3.80;;
21360;SDS011;10839;43.206;23.550;2022-12-11T12:30:36;9.25;;;5.22;;
21360;SDS011;10839;43.206;23.550;2022-12-11T12:38:54;12.35;;;6.78;;
21360;SDS011;10839;43.206;23.550;2022-12-11T12:41:55;17.23;;;8.68;;
21360;SDS011;10839;43.206;23.550;2022-12-11T12:44:30;14.40;;;9.20;;
21360;SDS011;10839;43.206;23.550;2022-12-11T12:47:17;17.88;;;10.50;;
21360;SDS011;10839;43.206;23.550;2022-12-11T12:49:45;12.80;;;7.45;;
21360;SDS011;10839;43.206;23.550;2022-12-11T12:52:15;14.93;;;7.93;;
21360;SDS011;10839;43.206;23.550;2022-12-11T12:54:44;9.80;;;5.93;;
21360;SDS011;10839;43.206;23.550;2022-12-11T12:57:33;7.90;;;5.20;;
21360;SDS011;10839;43.206;23.550;2022-12-11T13:00:01;7.40;;;5.10;;
21360;SDS011;10839;43.206;23.550;2022-12-11T13:02:28;6.53;;;5.00;;
21360;SDS011;10839;43.206;23.550;2022-12-11T13:04:55;8.40;;;5.63;;
21360;SDS011;10839;43.206;23.550;2022-12-11T13:07:26;9.30;;;6.28;;
21360;SDS011;10839;43.206;23.550;2022-12-11T13:10:05;10.00;;;7.13;;
21360;SDS011;10839;43.206;23.550;2022-12-11T13:12:48;9.55;;;5.82;;
21360;SDS011;10839;43.206;23.550;2022-12-11T13:17:56;7.22;;;4.90;;
21360;SDS011;10839;43.206;23.550;2022-12-11T13:20:25;7.65;;;5.65;;
21360;SDS011;10839;43.206;23.550;2022-12-11T13:25:28;9.20;;;5.95;;
21360;SDS011;10839;43.206;23.550;2022-12-11T13:28:03;12.60;;;7.57;;
21360;SDS011;10839;43.206;23.550;2022-12-11T13:34:06;17.48;;;10.23;;
21360;SDS011;10839;43.206;23.550;2022-12-11T13:36:52;75.35;;;36.22;;
21360;SDS011;10839;43.206;23.550;2022-12-11T13:41:46;10.15;;;5.60;;
21360;SDS011;10839;43.206;23.550;2022-12-11T13:44:17;17.85;;;9.43;;
21360;SDS011;10839;43.206;23.550;2022-12-11T13:46:48;9.38;;;6.80;;
21360;SDS011;10839;43.206;23.550;2022-12-11T13:49:21;11.75;;;6.55;;
21360;SDS011;10839;43.206;23.550;2022-12-11T13:51:54;14.60;;;8.18;;
21360;SDS011;10839;43.206;23.550;2022-12-11T13:54:22;13.25;;;8.30;;
21360;SDS011;10839;43.206;23.550;2022-12-11T13:56:53;12.98;;;8.30;;
21360;SDS011;10839;43.206;23.550;2022-12-11T13:59:25;11.95;;;7.75;;
21360;SDS011;10839;43.206;23.550;2022-12-11T14:01:52;14.00;;;8.18;;
21360;SDS011;10839;43.206;23.550;2022-12-11T14:04:20;25.90;;;12.52;;
21360;SDS011;10839;43.206;23.550;2022-12-11T14:06:47;50.00;;;25.23;;
21360;SDS011;10839;43.206;23.550;2022-12-11T14:09:18;73.63;;;37.58;;
21360;SDS011;10839;43.206;23.550;2022-12-11T14:11:48;24.15;;;13.15;;
21360;SDS011;10839;43.206;23.550;2022-12-11T14:14:21;25.35;;;13.57;;
21360;SDS011;10839;43.206;23.550;2022-12-11T14:16:52;17.52;;;10.68;;
21360;SDS011;10839;43.206;23.550;2022-12-11T14:19:19;15.30;;;9.15;;
21360;SDS011;10839;43.206;23.550;2022-12-11T14:21:57;15.10;;;9.57;;
21360;SDS011;10839;43.206;23.550;2022-12-11T14:24:25;13.35;;;8.00;;
21360;SDS011;10839;43.206;23.550;2022-12-11T14:26:52;12.23;;;8.45;;
21360;SDS011;10839;43.206;23.550;2022-12-11T14:29:23;12.50;;;8.10;;
21360;SDS011;10839;43.206;23.550;2022-12-11T14:32:04;16.52;;;8.80;;
21360;SDS011;10839;43.206;23.550;2022-12-11T14:37:09;16.10;;;9.27;;
21360;SDS011;10839;43.206;23.550;2022-12-11T14:39:37;21.42;;;10.88;;
21360;SDS011;10839;43.206;23.550;2022-12-11T14:47:15;15.00;;;9.55;;
21360;SDS011;10839;43.206;23.550;2022-12-11T14:49:56;13.52;;;8.38;;
21360;SDS011;10839;43.206;23.550;2022-12-11T14:52:45;16.45;;;9.02;;
21360;SDS011;10839;43.206;23.550;2022-12-11T15:00:27;14.75;;;8.75;;
21360;SDS011;10839;43.206;23.550;2022-12-11T15:02:58;17.85;;;11.20;;
21360;SDS011;10839;43.206;23.550;2022-12-11T15:05:47;33.60;;;16.45;;
21360;SDS011;10839;43.206;23.550;2022-12-11T15:08:18;21.77;;;12.15;;
21360;SDS011;10839;43.206;23.550;2022-12-11T15:11:02;18.17;;;10.38;;
21360;SDS011;10839;43.206;23.550;2022-12-11T15:13:37;23.42;;;11.40;;
21360;SDS011;10839;43.206;23.550;2022-12-11T15:16:25;13.02;;;7.55;;
21360;SDS011;10839;43.206;23.550;2022-12-11T15:18:55;16.02;;;8.77;;
21360;SDS011;10839;43.206;23.550;2022-12-11T15:21:32;16.42;;;9.48;;
21360;SDS011;10839;43.206;23.550;2022-12-11T15:24:01;15.63;;;8.57;;
21360;SDS011;10839;43.206;23.550;2022-12-11T15:26:33;16.27;;;9.88;;
21360;SDS011;10839;43.206;23.550;2022-12-11T15:29:04;23.27;;;13.45;;
21360;SDS011;10839;43.206;23.550;2022-12-11T15:31:47;19.95;;;12.27;;
21360;SDS011;10839;43.206;23.550;2022-12-11T15:34:24;27.75;;;15.32;;
21360;SDS011;10839;43.206;23.550;2022-12-11T15:36:50;61.58;;;31.63;;
21360;SDS011;10839;43.206;23.550;2022-12-11T15:39:16;32.38;;;18.08;;
21360;SDS011;10839;43.206;23.550;2022-12-11T15:41:42;21.85;;;11.93;;
21360;SDS011;10839;43.206;23.550;2022-12-11T15:44:08;20.42;;;11.27;;
21360;SDS011;10839;43.206;23.550;2022-12-11T15:46:45;15.38;;;9.75;;
21360;SDS011;10839;43.206;23.550;2022-12-11T15:49:11;18.08;;;10.68;;
21360;SDS011;10839;43.206;23.550;2022-12-11T15:51:38;64.18;;;33.20;;
21360;SDS011;10839;43.206;23.550;2022-12-11T15:54:04;123.05;;;59.38;;
21360;SDS011;10839;43.206;23.550;2022-12-11T15:56:30;41.35;;;21.77;;
21360;SDS011;10839;43.206;23.550;2022-12-11T15:58:57;29.00;;;14.02;;
21360;SDS011;10839;43.206;23.550;2022-12-11T16:01:28;20.98;;;12.23;;
21360;SDS011;10839;43.206;23.550;2022-12-11T16:03:54;20.38;;;11.15;;
21360;SDS011;10839;43.206;23.550;2022-12-11T16:06:20;17.42;;;10.07;;
21360;SDS011;10839;43.206;23.550;2022-12-11T16:08:46;22.17;;;11.20;;
21360;SDS011;10839;43.206;23.550;2022-12-11T16:11:12;18.83;;;10.98;;
21360;SDS011;10839;43.206;23.550;2022-12-11T16:13:38;17.88;;;10.60;;
21360;SDS011;10839;43.206;23.550;2022-12-11T16:16:05;11.23;;;6.70;;
21360;SDS011;10839;43.206;23.550;2022-12-11T16:18:32;10.52;;;6.45;;
21360;SDS011;10839;43.206;23.550;2022-12-11T16:21:02;7.90;;;4.13;;
21360;SDS011;10839;43.206;23.550;2022-12-11T16:23:30;11.80;;;6.80;;